Time;durP1;ratioP1;P1;durP2;ratioP2;P2;SDS_P1;SDS_P2;PMS_P1;PMS_P2;Temp;Humidity;BMP_temperature;BMP_pressure;BME280_temperature;BME280_humidity;BME280_pressure;Samples;Min_cycle;Max_cycle;Signal;HPM_P1;HPM_P2
2021/10/20 00:00:46;;;;;;;24.50;15.45;;;;;;;9.39;84.34;100460.69;1760775;81;27506;-65
2021/10/20 00:03:12;;;;;;;23.77;15.68;;;;;;;9.39;84.34;100455.28;1760693;81;27247;-63
2021/10/20 00:05:39;;;;;;;28.77;15.48;;;;;;;9.39;84.34;100451.23;1760650;81;25198;-63
2021/10/20 00:08:09;;;;;;;25.55;17.05;;;;;;;9.38;84.40;100442.34;1760673;81;26277;-64
2021/10/20 00:10:37;;;;;;;26.05;15.63;;;;;;;9.38;84.46;100438.30;1760744;81;25499;-64
2021/10/20 00:13:05;;;;;;;23.70;15.28;;;;;;;9.38;84.39;100436.13;1760698;81;27456;-63
2021/10/20 00:15:33;;;;;;;27.30;15.68;;;;;;;9.39;84.46;100439.88;1760587;81;25778;-63
2021/10/20 00:18:00;;;;;;;26.30;15.05;;;;;;;9.39;84.42;100432.34;1760662;81;25470;-64
2021/10/20 00:20:28;;;;;;;25.72;15.58;;;;;;;9.41;84.55;100428.78;1760659;81;26332;-63
2021/10/20 00:22:55;;;;;;;27.70;15.23;;;;;;;9.41;84.53;100432.27;1760704;81;25529;-63
2021/10/20 00:25:22;;;;;;;25.00;15.83;;;;;;;9.41;84.54;100429.58;1760709;81;28029;-63
2021/10/20 00:27:49;;;;;;;26.23;14.90;;;;;;;9.42;84.54;100435.80;1760612;81;25498;-64
2021/10/20 00:30:17;;;;;;;22.40;15.13;;;;;;;9.43;84.50;100417.13;1760693;81;25505;-63
2021/10/20 00:32:45;;;;;;;23.83;15.48;;;;;;;9.44;84.50;100413.34;1760628;81;25604;-63
2021/10/20 00:35:14;;;;;;;24.82;15.43;;;;;;;9.47;84.56;100412.75;1760659;79;25576;-63
2021/10/20 00:37:41;;;;;;;21.75;14.23;;;;;;;9.48;84.59;100404.89;1760807;81;29726;-65
2021/10/20 00:40:10;;;;;;;28.17;16.40;;;;;;;9.48;84.45;100405.71;1760580;81;25869;-65
2021/10/20 00:42:37;;;;;;;24.45;14.63;;;;;;;9.49;84.44;100402.45;1760830;81;25617;-65
2021/10/20 00:45:07;;;;;;;21.23;14.98;;;;;;;9.49;84.43;100393.80;1760646;81;26580;-63
2021/10/20 00:47:36;;;;;;;21.68;14.73;;;;;;;9.51;84.46;100386.75;1760838;81;25470;-64
2021/10/20 00:50:08;;;;;;;26.02;16.15;;;;;;;9.50;84.41;100387.30;1760690;81;27460;-63
2021/10/20 00:52:35;;;;;;;21.87;14.58;;;;;;;9.51;84.35;100375.95;1760235;81;25680;-63
2021/10/20 00:55:04;;;;;;;29.57;15.23;;;;;;;9.51;84.39;100376.73;1760640;81;25611;-63
2021/10/20 00:57:32;;;;;;;25.70;16.00;;;;;;;9.50;84.45;100369.75;1760778;81;26244;-63
2021/10/20 01:00:03;;;;;;;24.35;16.02;;;;;;;9.50;84.33;100364.35;1760714;81;25454;-63
2021/10/20 01:02:30;;;;;;;25.02;14.93;;;;;;;9.52;84.41;100361.36;1760719;81;28150;-63
2021/10/20 01:04:57;;;;;;;25.32;16.20;;;;;;;9.51;84.32;100352.99;1760547;81;25788;-63
2021/10/20 01:07:23;;;;;;;27.52;15.98;;;;;;;9.50;84.32;100348.16;1760669;81;25691;-63
2021/10/20 01:09:54;;;;;;;22.50;15.05;;;;;;;9.50;84.33;100345.45;1760635;81;25556;-63
2021/10/20 01:12:23;;;;;;;30.30;15.88;;;;;;;9.51;84.39;100342.98;1760690;81;25587;-64
2021/10/20 01:14:54;;;;;;;25.02;15.75;;;;;;;9.51;84.31;100337.58;1760638;81;27601;-64
2021/10/20 01:17:21;;;;;;;22.70;15.32;;;;;;;9.51;84.34;100334.88;1760586;81;25871;-64
2021/10/20 01:19:49;;;;;;;23.25;14.95;;;;;;;9.51;84.38;100341.63;1760652;81;25686;-64
2021/10/20 01:22:17;;;;;;;24.18;15.08;;;;;;;9.53;84.37;100337.28;1760653;81;25952;-64
2021/10/20 01:24:44;;;;;;;23.85;17.02;;;;;;;9.53;84.32;100339.98;1760678;81;25484;-64
2021/10/20 01:27:11;;;;;;;29.67;15.75;;;;;;;9.53;84.32;100340.80;1760657;81;28313;-64
2021/10/20 01:29:37;;;;;;;24.05;15.18;;;;;;;9.54;84.28;100330.23;1760528;81;25315;-65
2021/10/20 01:32:06;;;;;;;21.73;14.60;;;;;;;9.54;84.27;100332.14;1760651;81;25442;-65
2021/10/20 01:34:34;;;;;;;24.05;16.23;;;;;;;9.54;84.28;100332.94;1760577;81;26211;-65
2021/10/20 01:37:05;;;;;;;24.05;15.53;;;;;;;9.54;84.28;100315.95;1784346;79;25679;-65
2021/10/20 01:39:34;;;;;;;27.13;15.80;;;;;;;9.55;84.23;100313.48;1790612;78;27561;-64
2021/10/20 01:42:04;;;;;;;22.30;15.30;;;;;;;9.56;84.23;100311.03;1790742;80;25813;-64
2021/10/20 01:44:31;;;;;;;21.68;15.03;;;;;;;9.57;84.22;100312.65;1790773;80;25430;-64
2021/10/20 01:46:58;;;;;;;22.10;15.18;;;;;;;9.57;84.19;100302.38;1790505;80;25494;-64
2021/10/20 01:49:25;;;;;;;23.92;16.27;;;;;;;9.59;84.18;100313.70;1790602;80;25464;-64
2021/10/20 01:51:52;;;;;;;25.30;14.75;;;;;;;9.60;84.18;100299.08;1790552;80;26922;-64
2021/10/20 01:54:22;;;;;;;25.20;15.08;;;;;;;9.61;84.17;100299.34;1790458;80;25955;-65
2021/10/20 01:56:49;;;;;;;24.20;15.50;;;;;;;9.60;84.24;100290.41;1790528;80;25575;-65
2021/10/20 01:59:17;;;;;;;28.75;15.98;;;;;;;9.62;84.22;100292.82;1790524;80;26243;-65
2021/10/20 02:01:43;;;;;;;26.52;15.45;;;;;;;9.63;84.27;100292.52;1790664;80;25461;-65
2021/10/20 02:04:15;;;;;;;23.25;14.93;;;;;;;9.63;84.30;100285.77;1790624;80;27440;-65
2021/10/20 02:06:43;;;;;;;24.35;15.85;;;;;;;9.64;84.40;100295.48;1790478;80;25422;-65
2021/10/20 02:09:12;;;;;;;21.52;15.32;;;;;;;9.65;84.42;100288.98;1790525;78;25501;-64
2021/10/20 02:11:42;;;;;;;23.10;15.15;;;;;;;9.65;84.54;100292.22;1790654;80;25639;-65
2021/10/20 02:14:11;;;;;;;25.17;14.70;;;;;;;9.65;84.69;100288.17;1790706;80;25442;-65
2021/10/20 02:16:39;;;;;;;23.77;15.50;;;;;;;9.64;84.66;100286.59;1790654;80;27973;-65
2021/10/20 02:19:08;;;;;;;21.50;13.83;;;;;;;9.65;84.73;100284.12;1790716;80;25504;-65
2021/10/20 02:21:36;;;;;;;23.90;14.68;;;;;;;9.65;84.86;100283.59;1790638;80;25606;-64
2021/10/20 02:24:04;;;;;;;21.93;14.53;;;;;;;9.65;84.91;100274.66;1790504;80;25500;-65
2021/10/20 02:26:31;;;;;;;21.65;14.20;;;;;;;9.66;85.02;100281.12;1790583;80;25690;-64
2021/10/20 02:28:58;;;;;;;23.90;15.90;;;;;;;9.66;85.00;100280.33;1790538;80;27459;-65
2021/10/20 02:31:25;;;;;;;24.18;14.07;;;;;;;9.68;85.15;100280.26;1790450;80;25856;-65
2021/10/20 02:33:51;;;;;;;27.73;16.00;;;;;;;9.69;85.27;100271.63;1790561;80;25453;-65
2021/10/20 02:36:18;;;;;;;21.95;14.90;;;;;;;9.68;85.61;100264.05;1780383;79;25631;-65
2021/10/20 02:38:46;;;;;;;26.20;15.38;;;;;;;9.68;85.75;100268.66;1760618;81;25494;-64
2021/10/20 02:41:14;;;;;;;28.45;16.05;;;;;;;9.65;86.09;100259.81;1760632;81;28251;-64
2021/10/20 02:43:40;;;;;;;23.22;16.57;;;;;;;9.62;86.33;100261.77;1760539;81;25622;-64
2021/10/20 02:46:07;;;;;;;21.27;14.55;;;;;;;9.59;86.28;100257.78;1760608;81;25611;-65
2021/10/20 02:48:35;;;;;;;29.25;15.05;;;;;;;9.59;86.52;100259.13;1760654;81;25484;-65
2021/10/20 02:51:02;;;;;;;24.30;16.50;;;;;;;9.57;86.88;100255.94;1760649;81;25636;-65
2021/10/20 02:53:31;;;;;;;20.35;14.83;;;;;;;9.56;86.95;100252.98;1760617;81;27432;-65
2021/10/20 02:55:58;;;;;;;23.52;15.35;;;;;;;9.54;87.22;100253.28;1760707;81;25508;-65
2021/10/20 02:58:26;;;;;;;23.38;15.38;;;;;;;9.52;87.21;100250.65;1760770;81;25603;-65
2021/10/20 03:00:53;;;;;;;21.90;16.30;;;;;;;9.50;87.47;100249.59;1760979;81;25592;-65
2021/10/20 03:03:22;;;;;;;22.42;15.35;;;;;;;9.49;87.67;100241.80;1760790;81;25630;-65
2021/10/20 03:05:51;;;;;;;23.62;16.73;;;;;;;9.48;88.12;100238.84;1760883;81;27480;-65
2021/10/20 03:08:20;;;;;;;24.80;16.25;;;;;;;9.47;88.01;100240.75;1760665;81;25680;-65
2021/10/20 03:10:47;;;;;;;21.48;16.15;;;;;;;9.47;88.42;100241.31;1760824;81;25623;-65
2021/10/20 03:13:14;;;;;;;21.65;15.35;;;;;;;9.45;88.78;100231.34;1760711;81;25524;-66
2021/10/20 03:15:40;;;;;;;23.02;15.13;;;;;;;9.43;89.06;100222.22;1760713;81;25658;-65
2021/10/20 03:18:07;;;;;;;23.62;15.78;;;;;;;9.41;88.91;100214.95;1760761;81;27482;-65
2021/10/20 03:20:34;;;;;;;23.90;15.93;;;;;;;9.42;89.00;100216.56;1760618;81;25490;-65
2021/10/20 03:23:03;;;;;;;22.02;15.83;;;;;;;9.41;89.21;100211.45;1760772;81;25600;-65
2021/10/20 03:25:30;;;;;;;26.02;15.93;;;;;;;9.41;89.44;100212.25;1760844;81;25796;-65
2021/10/20 03:27:59;;;;;;;22.62;16.50;;;;;;;9.40;89.75;100208.50;1760866;81;25510;-64
2021/10/20 03:30:26;;;;;;;22.67;16.57;;;;;;;9.39;89.49;100200.96;1760954;81;28571;-65
2021/10/20 03:32:52;;;;;;;23.73;15.88;;;;;;;9.40;89.61;100202.57;1760628;81;25458;-65
2021/10/20 03:35:21;;;;;;;24.98;15.63;;;;;;;9.40;89.85;100198.52;1760706;81;25639;-65
2021/10/20 03:37:48;;;;;;;21.97;15.55;;;;;;;9.41;89.90;100196.61;1785651;79;26065;-60
2021/10/20 03:40:17;;;;;;;23.45;15.98;;;;;;;9.39;90.16;100192.86;1790662;78;25469;-60
2021/10/20 03:42:44;;;;;;;22.30;15.90;;;;;;;9.41;90.11;100190.66;1790780;80;27466;-61
2021/10/20 03:45:12;;;;;;;24.47;15.08;;;;;;;9.42;90.42;100186.07;1790576;80;25910;-60
2021/10/20 03:47:39;;;;;;;21.73;14.25;;;;;;;9.42;90.32;100177.97;1790648;80;25528;-60
2021/10/20 03:50:07;;;;;;;19.70;14.23;;;;;;;9.41;90.52;100177.16;1790618;80;25614;-60
2021/10/20 03:52:34;;;;;;;20.60;15.03;;;;;;;9.41;90.83;100175.80;1790665;80;25529;-60
2021/10/20 03:55:03;;;;;;;20.15;15.60;;;;;;;9.40;90.67;100167.48;1790607;80;27435;-60
2021/10/20 03:57:39;;;;;;;21.68;15.38;;;;;;;9.41;90.74;100170.41;1790770;80;33268;-61
2021/10/20 04:00:11;;;;;;;16.95;14.28;;;;;;;9.41;90.64;100170.41;1790650;80;25660;-59
2021/10/20 04:02:42;;;;;;;23.77;15.58;;;;;;;9.42;91.04;100157.73;1790712;80;26407;-59
2021/10/20 04:05:08;;;;;;;20.80;14.13;;;;;;;9.41;90.87;100164.22;1790516;79;25662;-59
2021/10/20 04:07:35;;;;;;;21.95;15.08;;;;;;;9.42;90.92;100164.47;1790599;80;28265;-60
2021/10/20 04:10:02;;;;;;;22.77;14.73;;;;;;;9.42;90.98;100158.52;1790547;78;25787;-59
2021/10/20 04:12:29;;;;;;;22.10;13.68;;;;;;;9.43;91.05;100164.17;1790652;80;25610;-59
2021/10/20 04:14:57;;;;;;;21.50;13.65;;;;;;;9.45;91.08;100158.44;1790605;80;26136;-62
2021/10/20 04:17:24;;;;;;;18.32;13.95;;;;;;;9.46;91.24;100163.55;1790646;80;25516;-62
2021/10/20 04:19:51;;;;;;;19.92;14.10;;;;;;;9.47;91.12;100155.70;1790604;80;27537;-63
2021/10/20 04:22:17;;;;;;;20.62;13.72;;;;;;;9.49;91.05;100144.59;1790566;80;25699;-62
2021/10/20 04:24:44;;;;;;;22.65;14.58;;;;;;;9.51;91.00;100139.13;1790616;80;25434;-62
2021/10/20 04:27:11;;;;;;;18.40;13.25;;;;;;;9.52;90.97;100139.39;1790610;80;25607;-60
2021/10/20 04:29:37;;;;;;;20.00;13.35;;;;;;;9.55;90.90;100139.31;1790662;80;25604;-61
2021/10/20 04:32:06;;;;;;;18.70;13.43;;;;;;;9.57;90.88;100141.70;1790623;80;27465;-61
2021/10/20 04:34:36;;;;;;;20.35;13.35;;;;;;;9.61;90.86;100144.06;1790536;80;25862;-59
2021/10/20 04:37:05;;;;;;;20.12;13.08;;;;;;;9.62;90.79;100142.41;1790474;80;25663;-58
2021/10/20 04:39:32;;;;;;;17.13;11.87;;;;;;;9.66;90.84;100148.78;1790772;78;25926;-58
2021/10/20 04:41:59;;;;;;;16.27;12.30;;;;;;;9.70;90.98;100138.98;1790610;80;25465;-58
2021/10/20 04:44:27;;;;;;;18.57;12.55;;;;;;;9.73;90.65;100130.23;1790555;80;27455;-58
2021/10/20 04:46:55;;;;;;;17.65;11.43;;;;;;;9.78;90.54;100132.59;1790816;79;25673;-61
2021/10/20 04:49:22;;;;;;;18.32;12.80;;;;;;;9.81;90.52;100122.53;1790635;80;25202;-61
2021/10/20 04:51:49;;;;;;;22.62;12.47;;;;;;;9.83;90.60;100114.34;1790585;80;26118;-61
2021/10/20 04:54:16;;;;;;;16.42;11.33;;;;;;;9.86;90.50;100109.69;1790660;80;25469;-61
2021/10/20 04:56:42;;;;;;;17.27;12.95;;;;;;;9.89;90.43;100119.88;1790635;80;28362;-59
2021/10/20 04:59:13;;;;;;;17.70;12.30;;;;;;;9.93;90.31;100115.19;1790528;80;25679;-61
2021/10/20 05:01:40;;;;;;;19.40;12.37;;;;;;;9.95;90.05;100105.68;1790632;80;25683;-61
2021/10/20 05:04:09;;;;;;;17.70;11.60;;;;;;;9.99;89.85;100109.34;1790586;80;25693;-61
2021/10/20 05:06:37;;;;;;;16.52;11.10;;;;;;;10.01;89.72;100108.51;1790594;80;25461;-57
2021/10/20 05:09:05;;;;;;;;;;;;;;;10.06;89.45;100104.86;1793230;78;28161;-58
2021/10/20 05:11:32;;;;;;;14.68;10.78;;;;;;;10.09;89.32;100098.84;1790603;80;25629;-58
2021/10/20 05:14:00;;;;;;;13.48;10.03;;;;;;;10.09;89.12;100102.33;1790586;80;25671;-59
2021/10/20 05:16:27;;;;;;;15.18;10.55;;;;;;;10.13;88.90;100098.48;1790538;80;25531;-59
2021/10/20 05:18:54;;;;;;;20.57;11.78;;;;;;;10.16;88.69;100100.53;1790563;80;25199;-59
2021/10/20 05:21:21;;;;;;;16.23;11.00;;;;;;;10.19;88.65;100089.67;1790581;80;26957;-59
2021/10/20 05:23:50;;;;;;;16.45;10.98;;;;;;;10.23;88.52;100085.23;1790503;80;25875;-60
2021/10/20 05:26:19;;;;;;;16.52;12.10;;;;;;;10.25;88.39;100085.17;1790791;80;25575;-59
2021/10/20 05:28:48;;;;;;;16.67;11.50;;;;;;;10.28;88.25;100079.15;1790679;80;32870;-59
2021/10/20 05:31:15;;;;;;;19.98;10.78;;;;;;;10.31;88.11;100081.77;1790535;80;25513;-60
2021/10/20 05:33:44;;;;;;;17.50;10.40;;;;;;;10.33;87.89;100072.81;1790562;80;27459;-59
2021/10/20 05:36:13;;;;;;;16.90;9.93;;;;;;;10.36;87.74;100066.79;1790591;80;25619;-59
2021/10/20 05:38:40;;;;;;;14.90;10.23;;;;;;;10.37;87.53;100057.58;1795446;78;25461;-59
2021/10/20 05:41:07;;;;;;;16.07;10.38;;;;;;;10.42;87.50;100064.20;1796406;79;26082;-59
2021/10/20 05:43:34;;;;;;;17.87;11.10;;;;;;;10.44;87.22;100060.62;1796451;79;25699;-59
2021/10/20 05:46:02;;;;;;;18.10;10.60;;;;;;;10.46;87.12;100061.09;1796422;79;27474;-59
2021/10/20 05:48:32;;;;;;;17.40;10.60;;;;;;;10.49;86.88;100066.45;1796351;79;25910;-59
2021/10/20 05:51:00;;;;;;;18.62;10.48;;;;;;;10.52;86.82;100061.77;1796495;79;25603;-59
2021/10/20 05:53:29;;;;;;;16.97;10.58;;;;;;;10.55;86.74;100058.41;1796462;79;25638;-59
2021/10/20 05:55:57;;;;;;;16.05;10.15;;;;;;;10.59;86.58;100062.63;1796476;79;25489;-59
2021/10/20 05:58:27;;;;;;;18.62;10.18;;;;;;;10.60;86.46;100063.67;1796428;79;27092;-59
2021/10/20 06:00:54;;;;;;;15.78;9.38;;;;;;;10.64;86.42;100063.84;1796345;79;25896;-59
2021/10/20 06:03:21;;;;;;;13.90;9.83;;;;;;;10.66;86.17;100061.64;1796526;79;25512;-59
2021/10/20 06:05:50;;;;;;;29.02;9.88;;;;;;;10.70;85.97;100067.22;1796369;79;25663;-59
2021/10/20 06:08:18;;;;;;;16.73;10.10;;;;;;;10.77;85.40;100061.56;1796587;79;25468;-60
2021/10/20 06:10:45;;;;;;;15.50;9.83;;;;;;;10.77;85.40;100061.56;1796409;78;27451;-59
2021/10/20 06:13:13;;;;;;;15.90;10.15;;;;;;;10.80;85.38;100060.94;1796346;79;25557;-60
2021/10/20 06:15:41;;;;;;;14.95;10.30;;;;;;;10.84;85.47;100060.56;1796362;79;25615;-60
2021/10/20 06:18:30;;;;;;;17.80;10.45;;;;;;;10.87;85.46;100063.18;1787431;80;25442;-60
2021/10/20 06:20:59;;;;;;;16.90;10.05;;;;;;;10.91;85.38;100063.34;1787486;80;25614;-59
2021/10/20 06:23:26;;;;;;;19.55;9.38;;;;;;;10.93;85.29;100059.22;1787613;80;27589;-59
2021/10/20 06:25:53;;;;;;;16.65;9.83;;;;;;;10.96;85.21;100062.62;1787374;80;25838;-60
2021/10/20 06:28:20;;;;;;;16.80;9.73;;;;;;;10.99;85.23;100066.63;1787446;80;25454;-59
2021/10/20 06:30:47;;;;;;;16.30;9.58;;;;;;;11.02;85.23;100063.28;1787415;80;26107;-59
2021/10/20 06:33:14;;;;;;;14.45;9.05;;;;;;;11.05;85.18;100068.06;1787461;80;25529;-59
2021/10/20 06:35:40;;;;;;;14.00;10.10;;;;;;;11.07;85.18;100064.48;1787509;80;27153;-60
2021/10/20 06:38:07;;;;;;;15.10;9.33;;;;;;;11.09;85.30;100073.08;1787360;80;25512;-60
2021/10/20 06:40:34;;;;;;;14.85;9.58;;;;;;;11.11;85.21;100061.37;1787359;79;25530;-60
2021/10/20 06:43:01;;;;;;;15.68;9.83;;;;;;;11.13;85.29;100059.70;1787326;80;27608;-60
2021/10/20 06:45:29;;;;;;;13.43;9.33;;;;;;;11.13;85.30;100059.13;1787436;80;25607;-60
2021/10/20 06:47:55;;;;;;;15.80;9.43;;;;;;;11.12;85.49;100054.85;1787392;80;27473;-60
2021/10/20 06:50:22;;;;;;;13.62;9.28;;;;;;;11.15;85.53;100058.81;1787359;80;25482;-60
2021/10/20 06:52:49;;;;;;;16.50;9.68;;;;;;;11.16;85.65;100059.86;1787427;80;25457;-60
2021/10/20 06:55:16;;;;;;;13.78;9.00;;;;;;;11.17;85.73;100059.32;1787408;80;25531;-59
2021/10/20 06:57:42;;;;;;;14.87;9.23;;;;;;;11.18;85.94;100046.80;1787439;80;25599;-60
2021/10/20 07:00:12;;;;;;;13.58;9.10;;;;;;;11.18;86.11;100050.85;1787415;80;27484;-60
2021/10/20 07:02:38;;;;;;;15.25;9.93;;;;;;;11.19;86.12;100048.39;1787518;80;25834;-61
2021/10/20 07:05:07;;;;;;;14.65;9.30;;;;;;;11.21;86.12;100054.28;1787388;80;25671;-60
2021/10/20 07:07:34;;;;;;;13.25;9.35;;;;;;;11.22;86.29;100042.91;1787485;80;25528;-60
2021/10/20 07:10:01;;;;;;;16.85;10.05;;;;;;;11.23;86.42;100035.02;1787400;79;25668;-60
2021/10/20 07:12:30;;;;;;;15.40;9.08;;;;;;;11.26;86.76;100040.36;1787423;80;28149;-60
2021/10/20 07:14:58;;;;;;;16.90;9.18;;;;;;;11.27;86.70;100036.52;1787157;80;25599;-60
2021/10/20 07:17:26;;;;;;;13.90;10.03;;;;;;;11.30;86.94;100039.38;1804102;78;25627;-58
2021/10/20 07:19:53;;;;;;;16.37;9.80;;;;;;;11.32;86.90;100030.41;1822570;78;25596;-59
2021/10/20 07:22:20;;;;;;;16.90;10.25;;;;;;;11.34;87.31;100028.70;1822748;78;25641;-60
2021/10/20 07:24:47;;;;;;;13.00;9.18;;;;;;;11.37;87.27;100025.36;1822626;78;28222;-60
2021/10/20 07:27:13;;;;;;;15.55;9.58;;;;;;;11.44;87.59;100024.88;1822514;78;25607;-60
2021/10/20 07:29:44;;;;;;;11.75;9.28;;;;;;;11.50;87.76;100028.45;1822610;78;25479;-59
2021/10/20 07:32:09;;;;;;;14.70;9.45;;;;;;;11.55;87.83;100030.99;1822221;78;25630;-60
2021/10/20 07:34:38;;;;;;;13.25;9.23;;;;;;;11.62;88.10;100032.43;1822643;78;25513;-60
2021/10/20 07:37:06;;;;;;;17.27;10.60;;;;;;;11.66;88.06;100027.95;1822728;78;27616;-60
2021/10/20 07:39:33;;;;;;;14.83;9.05;;;;;;;11.69;88.04;100022.67;1822457;78;25458;-60
2021/10/20 07:42:01;;;;;;;12.82;9.33;;;;;;;11.77;88.15;100015.66;1822701;78;25467;-60
2021/10/20 07:44:28;;;;;;;18.25;10.15;;;;;;;11.83;88.28;100027.10;1822746;78;25678;-60
2021/10/20 07:46:55;;;;;;;15.48;9.30;;;;;;;11.85;88.21;100020.26;1822769;78;25662;-58
2021/10/20 07:49:22;;;;;;;14.60;9.33;;;;;;;11.91;88.24;100018.19;1822776;78;28166;-58
2021/10/20 07:51:55;;;;;;;13.70;9.73;;;;;;;11.94;88.25;100013.48;1822682;78;25986;-60
2021/10/20 07:54:19;;;;;;;13.53;8.63;;;;;;;11.98;88.37;100020.39;1822110;78;25456;-60
2021/10/20 07:56:45;;;;;;;12.15;8.55;;;;;;;12.05;88.46;100017.97;1822783;78;25500;-60
2021/10/20 07:59:12;;;;;;;15.38;9.08;;;;;;;12.09;88.54;100012.94;1822892;78;25582;-60
2021/10/20 08:01:39;;;;;;;13.45;9.53;;;;;;;12.14;88.61;100009.25;1822758;78;27406;-58
2021/10/20 08:04:06;;;;;;;12.00;8.53;;;;;;;12.21;88.55;99997.88;1822731;78;26007;-64
2021/10/20 08:06:33;;;;;;;14.25;8.53;;;;;;;12.28;88.65;100002.25;1822753;78;25610;-59
2021/10/20 08:09:00;;;;;;;15.65;8.65;;;;;;;12.35;88.73;100005.23;1822682;78;25714;-59
2021/10/20 08:11:28;;;;;;;13.03;8.75;;;;;;;12.41;88.64;100003.12;1822781;78;25606;-59
2021/10/20 08:13:54;;;;;;;17.02;8.60;;;;;;;12.46;88.51;99997.50;1822737;78;27443;-59
2021/10/20 08:16:22;;;;;;;12.00;8.08;;;;;;;12.51;88.44;99987.81;1822645;78;25677;-59
2021/10/20 08:18:50;;;;;;;12.43;8.93;;;;;;;12.57;88.33;99986.51;1822705;78;25459;-59
2021/10/20 08:21:16;;;;;;;12.98;8.60;;;;;;;12.64;88.28;99988.70;1822702;78;25594;-59
2021/10/20 08:23:43;;;;;;;13.60;8.75;;;;;;;12.71;88.23;99978.11;1822772;78;25921;-59
2021/10/20 08:26:11;;;;;;;12.80;9.23;;;;;;;12.81;88.14;99983.14;1822746;78;28098;-60
2021/10/20 08:28:38;;;;;;;13.90;8.63;;;;;;;12.92;88.05;99977.31;1822654;78;25745;-59
2021/10/20 08:31:05;;;;;;;19.02;8.58;;;;;;;13.00;87.89;99969.09;1822715;78;25438;-61
2021/10/20 08:33:33;;;;;;;13.48;8.60;;;;;;;13.12;87.67;99974.34;1822688;78;25652;-60
2021/10/20 08:36:01;;;;;;;11.60;8.18;;;;;;;13.20;87.48;99968.05;1822950;78;25658;-59
2021/10/20 08:38:28;;;;;;;16.85;7.90;;;;;;;13.30;87.03;99979.03;1822693;78;28236;-60
2021/10/20 08:40:55;;;;;;;10.40;8.08;;;;;;;13.37;86.56;99976.05;1822597;78;25891;-60
2021/10/20 08:43:23;;;;;;;14.60;8.33;;;;;;;13.43;86.15;99962.48;1822794;78;25677;-62
2021/10/20 08:45:50;;;;;;;11.75;8.15;;;;;;;13.50;85.93;99961.13;1822689;78;25673;-61
2021/10/20 08:48:19;;;;;;;12.23;7.72;;;;;;;13.56;85.50;99950.28;1822760;78;25521;-60
2021/10/20 08:50:50;;;;;;;12.33;7.47;;;;;;;13.65;85.50;99953.68;1822865;78;27443;-61
2021/10/20 08:53:19;;;;;;;10.65;8.23;;;;;;;13.72;85.19;99946.33;1822657;78;25634;-60
2021/10/20 08:55:48;;;;;;;11.80;7.73;;;;;;;13.80;85.08;99951.66;1822959;78;25674;-58
2021/10/20 08:58:16;;;;;;;17.37;7.73;;;;;;;13.89;84.71;99948.04;1822904;78;25600;-59
2021/10/20 09:00:46;;;;;;;13.72;7.83;;;;;;;13.98;84.25;99946.80;1822746;78;25610;-59
2021/10/20 09:03:14;;;;;;;14.00;7.78;;;;;;;14.10;84.44;99946.59;1822752;78;28113;-59
2021/10/20 09:05:42;;;;;;;11.60;7.65;;;;;;;14.17;83.92;99934.56;1822623;78;25690;-59
2021/10/20 09:08:09;;;;;;;10.23;7.90;;;;;;;14.25;83.88;99933.66;1822699;78;25517;-59
2021/10/20 09:10:36;;;;;;;14.58;7.45;;;;;;;14.33;83.30;99928.62;1822635;78;25643;-60
2021/10/20 09:13:04;;;;;;;10.65;7.00;;;;;;;14.42;83.39;99930.42;1822747;78;25612;-62
2021/10/20 09:15:35;;;;;;;11.08;7.90;;;;;;;14.61;83.71;99925.76;1822677;78;27448;-59
2021/10/20 09:18:10;;;;;;;10.88;7.20;;;;;;;14.87;82.79;99926.13;1821009;78;25664;-59
2021/10/20 09:20:46;;;;;;;12.95;7.55;;;;;;;15.11;82.19;99925.80;1819610;78;25617;-59
2021/10/20 09:23:19;;;;;;;12.18;7.95;;;;;;;15.29;81.11;99942.63;1819494;78;25579;-59
2021/10/20 09:25:52;;;;;;;10.48;7.37;;;;;;;15.43;80.33;99923.13;1819402;78;25599;-59
2021/10/20 09:28:33;;;;;;;8.88;6.53;;;;;;;15.67;80.78;99927.03;1819458;78;28075;-61
2021/10/20 09:31:04;;;;;;;10.08;7.03;;;;;;;15.81;79.31;99932.66;1819421;78;25808;-60
2021/10/20 09:33:34;;;;;;;10.45;6.83;;;;;;;15.90;79.33;99917.47;1819524;78;25671;-59
2021/10/20 09:36:05;;;;;;;10.10;7.20;;;;;;;16.04;78.58;99924.05;1790826;78;26171;-59
2021/10/20 09:38:40;;;;;;;14.10;6.87;;;;;;;16.10;76.44;99916.95;1819174;78;25615;-59
2021/10/20 09:41:09;;;;;;;15.55;7.22;;;;;;;16.12;75.81;99908.63;1819523;78;28168;-59
2021/10/20 09:43:55;;;;;;;9.45;7.25;;;;;;;16.23;76.54;99917.06;1819525;78;32826;-59
2021/10/20 09:46:36;;;;;;;13.90;7.70;;;;;;;16.35;77.04;99897.83;1819518;78;25500;-59
2021/10/20 09:49:20;;;;;;;8.20;7.15;;;;;;;16.55;75.95;99906.02;1819452;78;25606;-59
2021/10/20 09:51:48;;;;;;;12.37;7.20;;;;;;;16.62;76.53;99900.73;1818735;78;25686;-59
2021/10/20 09:54:29;;;;;;;15.03;7.75;;;;;;;16.81;76.86;99902.66;1819456;78;27457;-59
2021/10/20 09:56:58;;;;;;;12.70;7.60;;;;;;;16.92;75.07;99905.62;1819385;78;25442;-59
2021/10/20 09:59:32;;;;;;;;;;;;;;;16.97;75.52;99894.39;1822154;78;25663;-59
2021/10/20 10:02:00;;;;;;;9.18;6.83;;;;;;;17.12;74.53;99906.39;1686414;84;25907;-59
2021/10/20 10:04:29;;;;;;;12.58;7.05;;;;;;;17.17;73.68;99897.30;1686676;85;25634;-59
2021/10/20 10:06:56;;;;;;;8.75;6.70;;;;;;;17.15;73.49;99896.10;1686562;85;27426;-59
2021/10/20 10:09:23;;;;;;;10.35;7.28;;;;;;;17.23;74.32;99878.69;1686336;85;25867;-60
2021/10/20 10:11:56;;;;;;;8.83;6.75;;;;;;;17.43;71.87;99893.06;1686457;85;25713;-58
2021/10/20 10:14:32;;;;;;;9.95;7.08;;;;;;;17.50;73.35;99888.29;1686429;85;25714;-58
2021/10/20 10:17:01;;;;;;;8.93;6.95;;;;;;;17.63;71.78;99885.58;1686481;85;25706;-60
2021/10/20 10:19:32;;;;;;;8.43;6.65;;;;;;;17.61;71.48;99874.22;1663296;84;27465;-58
2021/10/20 10:21:58;;;;;;;12.23;7.45;;;;;;;17.66;71.38;99878.02;1686354;85;25731;-58
2021/10/20 10:24:35;;;;;;;8.83;6.47;;;;;;;17.74;70.71;99893.94;1686426;85;25651;-60
2021/10/20 10:27:10;;;;;;;9.30;6.53;;;;;;;17.73;70.10;99875.97;1731605;82;25665;-60
2021/10/20 10:29:56;;;;;;;9.15;6.78;;;;;;;17.80;71.52;99882.13;1780787;80;25470;-58
2021/10/20 10:32:27;;;;;;;9.00;6.65;;;;;;;17.88;70.84;99865.48;1780812;80;27470;-59
2021/10/20 10:34:56;;;;;;;10.18;6.50;;;;;;;17.96;71.05;99854.63;1755754;81;25623;-59
2021/10/20 10:37:31;;;;;;;9.33;6.10;;;;;;;18.02;70.56;99860.01;1761896;81;25445;-60
2021/10/20 10:40:19;;;;;;;9.30;7.12;;;;;;;18.04;70.35;99855.73;1761913;81;26130;-60
2021/10/20 10:42:49;;;;;;;8.75;6.85;;;;;;;18.11;70.62;99842.13;1761977;80;25471;-61
2021/10/20 10:45:21;;;;;;;9.00;6.53;;;;;;;18.24;71.07;99852.88;1761884;80;27469;-59
2021/10/20 10:48:04;;;;;;;8.40;6.45;;;;;;;18.42;68.23;99838.83;1761886;81;25588;-59
2021/10/20 10:50:45;;;;;;;10.98;6.72;;;;;;;18.50;68.97;99837.53;1761951;80;25653;-59
2021/10/20 10:53:38;;;;;;;8.08;6.40;;;;;;;18.60;69.43;99826.70;1761471;81;26082;-59
2021/10/20 10:56:09;;;;;;;7.62;5.92;;;;;;;18.70;69.13;99824.46;1762008;81;25640;-59
2021/10/20 10:59:04;;;;;;;11.15;6.08;;;;;;;18.71;67.65;99832.87;1761921;80;28135;-59
2021/10/20 11:01:44;;;;;;;8.45;6.17;;;;;;;18.63;68.29;99821.06;1761872;81;25545;-59
2021/10/20 11:04:26;;;;;;;;;;;;;;;18.60;67.85;99825.91;1764643;81;25675;-59
2021/10/20 11:06:55;;;;;;;11.88;6.20;;;;;;;18.49;67.86;99821.70;1761757;80;25645;-59
2021/10/20 11:09:35;;;;;;;7.47;6.20;;;;;;;18.42;68.30;99816.92;1761243;80;25606;-59
2021/10/20 11:12:03;;;;;;;9.05;6.10;;;;;;;18.44;68.88;99817.33;1759215;81;27712;-59
2021/10/20 11:14:32;;;;;;;8.38;6.12;;;;;;;18.46;67.51;99838.28;1761175;81;25619;-59
2021/10/20 11:17:10;;;;;;;9.95;5.83;;;;;;;18.48;68.32;99816.00;1762113;81;25615;-60
2021/10/20 11:19:38;;;;;;;8.55;6.17;;;;;;;18.52;67.67;99798.23;1783182;80;25667;-59
2021/10/20 11:22:06;;;;;;;11.48;6.65;;;;;;;18.61;68.73;99803.63;1787034;80;25545;-59
2021/10/20 11:24:45;;;;;;;9.55;6.05;;;;;;;18.78;68.37;99803.61;1787065;80;28025;-58
2021/10/20 11:27:14;;;;;;;8.33;6.35;;;;;;;18.94;68.59;99795.17;1786959;80;25811;-58